ADDS METAR Data INFO
IDs: Format: Raw Decoded Include TAF

Data at: 2058 UTC 19 Jul 2018

KW13 192035Z AUTO 13006KT 10SM CLR 27/14 A3011 RMK AO1 T02650141
KW13 192015Z AUTO 12007KT 10SM SCT050 27/13 A3012 RMK AO1 T02670134
KW13 191955Z AUTO 13006KT 100V170 10SM SCT050 27/14 A3012 RMK AO1 T02730142
KW13 191935Z AUTO 13006KT 10SM SCT060 27/15 A3012 RMK AO1 T02700147
KW13 191915Z AUTO 11006KT 10SM BKN060 26/14 A3013 RMK AO1 T02580142
KW13 191855Z AUTO 19005KT 10SM SCT060 27/14 A3013 RMK AO1 T02680144
KW13 191835Z AUTO 12003KT 10SM SCT060 27/14 A3013 RMK AO1 T02690136
KW13 191815Z AUTO 09004KT 10SM SCT060 26/13 A3013 RMK AO1 T02640131
KW13 191755Z AUTO 19003KT 10SM CLR 27/14 A3013 RMK AO1 T02680138 10268 20166
KW13 191735Z AUTO 16004KT 10SM CLR 26/13 A3014 RMK AO1 T02620128
KW13 191715Z AUTO 16007KT 10SM CLR 26/13 A3014 RMK AO1 T02630133
KW13 191655Z AUTO 00000KT 10SM CLR 25/13 A3015 RMK AO1 T02530128
KW13 191635Z AUTO 07004KT 10SM CLR 26/13 A3015 RMK AO1 T02560125
KW13 191615Z AUTO 14006KT 10SM CLR 25/13 A3015 RMK AO1 T02530129
KW13 191555Z AUTO 12006KT 090V150 10SM CLR 25/13 A3016 RMK AO1 T02510130
KW13 191535Z AUTO 09003KT 10SM CLR 25/15 A3016 RMK AO1 T02450153
KW13 191515Z AUTO 13005KT 10SM CLR 24/15 A3015 RMK AO1 T02410154
KW13 191455Z AUTO 00000KT 10SM CLR 24/15 A3015 RMK AO1 T02370152
KW13 191435Z AUTO 11004KT 10SM CLR 23/15 A3015 RMK AO1 T02290150
KW13 191415Z AUTO 00000KT 10SM CLR 22/15 A3015 RMK AO1 T02210147
KW13 191355Z AUTO 00000KT 10SM CLR 21/15 A3015 RMK AO1 T02090153
KW13 191335Z AUTO 00000KT 10SM CLR 21/14 A3015 RMK AO1 T02070144
KW13 191315Z AUTO 00000KT 10SM CLR 20/16 A3015 RMK AO1 T02020156
KW13 191255Z AUTO 00000KT 10SM CLR 19/15 A3015 RMK AO1 T01920149
KW13 191235Z AUTO 00000KT 10SM CLR 18/15 A3015 RMK AO1 T01830150
KW13 191215Z AUTO 00000KT 10SM CLR 17/15 A3014 RMK AO1 T01730148
KW13 191155Z AUTO 20003KT 10SM CLR 16/15 A3014 RMK AO1 T01640146 10164 20131
KW13 191135Z AUTO 00000KT 10SM CLR 15/14 A3013 RMK AO1 T01540142
KW13 191115Z AUTO 00000KT 10SM CLR 15/14 A3013 RMK AO1 T01460141
KW13 191055Z AUTO 00000KT 10SM CLR 14/14 A3013 RMK AO1 T01370136
KW13 191035Z AUTO 00000KT 10SM CLR 13/13 A3012 RMK AO1 T01340133
KW13 191015Z AUTO 00000KT 10SM SCT060 13/13 A3012 RMK AO1 T01310130
KW13 190955Z AUTO 21003KT 10SM SCT060 14/13 A3012 RMK AO1 T01350133
KW13 190935Z AUTO 23003KT 10SM SCT065 13/13 A3011 RMK AO1 T01330132
KW13 190915Z AUTO 00000KT 10SM SCT065 13/13 A3011 RMK AO1 T01330132
KW13 190855Z AUTO 00000KT 10SM SCT065 14/13 A3011 RMK AO1 T01350134
KW13 190835Z AUTO 00000KT 10SM SCT065 14/14 A3010 RMK AO1 T01390138
KW13 190815Z AUTO 00000KT 10SM SCT065 14/14 A3011 RMK AO1 T01400140
KW13 190755Z AUTO 20003KT 10SM CLR 14/14 A3010 RMK AO1 T01410140
KW13 190735Z AUTO 00000KT 10SM CLR 15/14 A3010 RMK AO1 T01450142
KW13 190715Z AUTO 20007KT 10SM CLR 15/14 A3010 RMK AO1 T01460144
KW13 190655Z AUTO 00000KT 10SM CLR 15/15 A3010 RMK AO1 T01540146
KW13 190635Z AUTO 00000KT 10SM SCT065 15/15 A3010 RMK AO1 T01520147
KW13 190615Z AUTO 00000KT 10SM CLR 15/15 A3010 RMK AO1 T01510147
KW13 190555Z AUTO 00000KT 10SM CLR 16/15 A3010 RMK AO1 T01550150 10240 20155
KW13 190535Z AUTO 00000KT 10SM CLR 16/15 A3010 RMK AO1 T01560150
KW13 190515Z AUTO 00000KT 10SM SCT060 16/15 A3010 RMK AO1 T01590152
KW13 190455Z AUTO 00000KT 10SM SCT070 17/15 A3009 RMK AO1 T01710151 402690163
KW13 190435Z AUTO 00000KT 10SM BKN070 17/15 A3009 RMK AO1 T01700151
KW13 190415Z AUTO 00000KT 10SM OVC070 18/15 A3008 RMK AO1 T01760151
KW13 190355Z AUTO 00000KT 10SM OVC070 19/15 A3008 RMK AO1 T01860151
KW13 190335Z AUTO 00000KT 10SM OVC070 19/15 A3007 RMK AO1 T01860149
KW13 190315Z AUTO 00000KT 10SM OVC070 19/15 A3007 RMK AO1 T01880147
KW13 190255Z AUTO 00000KT 10SM OVC070 18/15 A3007 RMK AO1 T01830153
KW13 190235Z AUTO 00000KT 10SM OVC070 19/15 A3007 RMK AO1 T01860150
KW13 190215Z AUTO 00000KT 10SM BKN070 19/15 A3007 RMK AO1 T01880146
KW13 190155Z AUTO 21003KT 10SM BKN070 19/15 A3006 RMK AO1 T01870147
KW13 190135Z AUTO 00000KT 10SM SCT070 19/14 A3005 RMK AO1 T01900144
KW13 190115Z AUTO 00000KT 10SM CLR 20/14 A3005 RMK AO1 T02010144
KW13 190055Z AUTO 00000KT 10SM CLR 20/15 A3004 RMK AO1 T02040146
KW13 190035Z AUTO 00000KT 10SM CLR 23/14 A3003 RMK AO1 T02250136
KW13 190015Z AUTO 00000KT 10SM CLR 24/13 A3003 RMK AO1 T02350130
KW13 182355Z AUTO 04004KT 10SM CLR 24/13 A3002 RMK AO1 T02420127 10269 20242
KW13 182335Z AUTO 04005KT 10SM CLR 25/13 A3002 RMK AO1 T02480127
KW13 182315Z AUTO 05004KT 10SM CLR 25/12 A3002 RMK AO1 T02510124
KW13 182255Z AUTO 02005KT 10SM CLR 26/12 A3002 RMK AO1 T02560121
KW13 182235Z AUTO 06004KT 10SM SCT065 26/12 A3001 RMK AO1 T02570122
KW13 182215Z AUTO 05005KT 10SM CLR 26/12 A3002 RMK AO1 T02610123
KW13 182155Z AUTO 02004KT 10SM CLR 26/12 A3002 RMK AO1 T02630120
KW13 182135Z AUTO 36004KT 10SM CLR 27/12 A3002 RMK AO1 T02650118
KW13 182115Z AUTO 02006KT 10SM CLR 27/12 A3002 RMK AO1 T02650119
KW13 182055Z AUTO 04004KT 10SM CLR 26/11 A3002 RMK AO1 T02620110
KW13 182035Z AUTO 02005KT 10SM CLR 27/12 A3002 RMK AO1 T02660118
KW13 182015Z AUTO 01008KT 10SM CLR 26/11 A3003 RMK AO1 T02620110
KW13 181955Z AUTO 36006KT 10SM SCT065 27/11 A3003 RMK AO1 T02670114
KW13 181935Z AUTO 32008KT 10SM SCT065 26/11 A3003 RMK AO1 T02590106
KW13 181915Z AUTO 03006G15KT 10SM CLR 26/11 A3003 RMK AO1 T02630108
KW13 181855Z AUTO 05004KT 10SM CLR 26/10 A3004 RMK AO1 T02580101
KW13 181835Z AUTO 35005KT 10SM CLR 26/11 A3004 RMK AO1 T02560106
KW13 181815Z AUTO 01006KT 10SM CLR 26/11 A3004 RMK AO1 T02550110
KW13 181755Z AUTO 07004KT 10SM CLR 25/11 A3004 RMK AO1 T02500106 10254 20197
KW13 181735Z AUTO 36004KT 10SM CLR 25/11 A3005 RMK AO1 T02500113
KW13 181715Z AUTO 36005KT 10SM SCT050 25/12 A3005 RMK AO1 T02500121
KW13 181655Z AUTO 34005KT 10SM SCT050 25/12 A3005 RMK AO1 T02460118
KW13 181635Z AUTO 35005KT 310V020 10SM SCT050 24/12 A3006 RMK AO1 T02430123
KW13 181615Z AUTO 30005KT 10SM CLR 24/12 A3006 RMK AO1 T02390121
KW13 181555Z AUTO 32006KT 310V010 10SM CLR 24/13 A3006 RMK AO1 T02390125
KW13 181535Z AUTO 35008KT 310V030 10SM CLR 24/12 A3007 RMK AO1 T02350123
KW13 181515Z AUTO 02009G14KT 10SM CLR 23/12 A3007 RMK AO1 T02310119
KW13 181455Z AUTO 35008G15KT 310V010 10SM CLR 23/12 A3007 RMK AO1 T02280115
KW13 181435Z AUTO 34008G16KT 10SM CLR 23/11 A3007 RMK AO1 T02250114
KW13 181415Z AUTO 34010G14KT 10SM CLR 22/11 A3007 RMK AO1 T02210111
KW13 181355Z AUTO 01009G14KT 10SM CLR 22/12 A3007 RMK AO1 T02190117
KW13 181335Z AUTO 36008KT 330V030 10SM CLR 22/13 A3006 RMK AO1 T02150131
KW13 181315Z AUTO 33006KT 320V020 10SM CLR 21/13 A3006 RMK AO1 T02090132
KW13 181255Z AUTO 34005KT 10SM CLR 21/14 A3005 RMK AO1 T02060138
KW13 181235Z AUTO 34006KT 10SM CLR 20/14 A3005 RMK AO1 T02030140
KW13 181215Z AUTO 34005KT 10SM CLR 20/14 A3005 RMK AO1 T01970137
KW13 181155Z AUTO 34003KT 10SM CLR 20/14 A3005 RMK AO1 70002 T01950139 10206 20163
KW13 181135Z AUTO 35004KT 10SM CLR 19/14 A3003 RMK AO1 T01910144
KW13 181115Z AUTO 00000KT 10SM CLR 18/16 A3003 RMK AO1 T01770164
KW13 181055Z AUTO 00000KT 10SM CLR 17/16 A3003 RMK AO1 T01680160
KW13 181035Z AUTO 00000KT 10SM CLR 17/16 A3002 RMK AO1 T01660156
KW13 181015Z AUTO 00000KT 10SM CLR 18/15 A3001 RMK AO1 T01800152
KW13 180955Z AUTO 00000KT 10SM CLR 18/16 A3000 RMK AO1 T01810155
KW13 180935Z AUTO 34003KT 10SM CLR 19/15 A3000 RMK AO1 T01910151
KW13 180915Z AUTO 00000KT 10SM CLR 19/16 A2999 RMK AO1 T01920156